Flight Track Log - Related Links

Times and Time Zones

All times are in EDT time to prevent confusion due to time zone crossing. See the N163ME flight status page for this flight to view local times or setup timezone preferences in your user account.

Time Position Orientation Groundspeed Altitude Reporting Facility
EDT Latitude Longitude Course Direction KTS MPH feet Rate Location/Type
Wed 11:10:54 AM 39.4167 -77.3667 67° East 98 113 3,000  Level Potomac TRACON
Wed 11:11:54 AM 39.4333 -77.3167 67° East 110 127 3,000 -50 Level Potomac TRACON
Wed 11:12:54 AM 39.4333 -77.2833 90° East 108 124 2,900 -50 Descending Potomac TRACON
Wed 11:13:55 AM 39.4333 -77.2500 90° East 107 123 2,900  Level Potomac TRACON
Wed 11:14:49 AM 39.4500 -77.2167 57° Northeast 113 130 2,900 105 Level Potomac TRACON
Wed 11:15:49 AM 39.4500 -77.1833 90° East 99 114 3,100 50 Climbing Potomac TRACON
Wed 11:16:50 AM 39.4667 -77.1500 57° Northeast 104 120 3,000 -50 Descending Potomac TRACON
Wed 11:17:50 AM 39.4667 -77.1000 90° East 106 122 3,000  Level Potomac TRACON
Wed 11:18:50 AM 39.4667 -77.0667 90° East 101 116 3,000  Level Potomac TRACON
Wed 11:19:51 AM 39.4833 -77.0333 57° Northeast 109 125 3,000  Level Potomac TRACON
Wed 11:20:51 AM 39.4833 -77.0000 90° East 107 123 3,000  Level Potomac TRACON
Wed 11:21:52 AM 39.4833 -76.9667 90° East 103 119 3,000 50 Level Potomac TRACON
Wed 11:22:52 AM 39.4667 -76.9500 142° Southeast 97 112 3,100  Climbing Potomac TRACON
Wed 11:23:52 AM 39.4500 -76.9667 218° Southwest 104 120 3,000 -52 Descending Potomac TRACON
Wed 11:24:47 AM 39.4667 -76.9833 322° Northwest 114 131 3,000  Level Potomac TRACON
Wed 11:25:47 AM 39.4833 -76.9667 38° Northeast 113 130 3,000 -50 Level Potomac TRACON
Wed 11:26:47 AM 39.5167 -76.9833 339° North 114 131 2,900 -300 Descending Potomac TRACON
Wed 11:27:47 AM 39.5500 -76.9833 360° North 113 130 2,400 -595 Descending Potomac TRACON
Wed 11:28:48 AM 39.5833 -77.0000 339° North 105 121 1,700 -446 Descending Potomac TRACON
Wed 11:29:48 AM 39.6167 -77.0000 360° North 112 129 1,500 -100 Descending Potomac TRACON
Wed 11:30:48 AM 39.6167 -77.0000 180° South 104 120 1,500 750 Level Potomac TRACON
Wed 11:31:48 AM 39.5833 -77.0000 180° South 91 105 3,000 750 Climbing Potomac TRACON
Wed 11:32:48 AM 39.5500 -77.0000 180° South 105 121 3,000 -50 Level Potomac TRACON
Wed 11:33:48 AM 39.5333 -77.0000 180° South 101 116 2,900 -50 Descending Potomac TRACON
Wed 11:34:48 AM 39.5000 -76.9833 159° South 102 117 2,900 50 Level Potomac TRACON
Wed 11:35:48 AM 39.4833 -76.9833 180° South 101 116 3,000  Climbing Potomac TRACON
Wed 11:36:48 AM 39.4500 -76.9833 180° South 99 114 2,900 -50 Descending Potomac TRACON
Wed 11:37:48 AM 39.4667 -76.9667 38° Northeast 119 137 2,900 50 Level Potomac TRACON
Wed 11:38:48 AM 39.5000 -76.9833 339° North 108 124 3,000 50 Climbing Potomac TRACON
Wed 11:39:49 AM 39.5000 -77.0000 270° West 133 153 3,000  Level Potomac TRACON
Wed 11:40:49 AM 39.4667 -76.9833 159° South 98 113 3,000  Level Potomac TRACON
Wed 11:41:49 AM 39.4667 -76.9667 90° East 126 145 3,000  Level Potomac TRACON
Wed 11:42:49 AM 39.5000 -76.9833 339° North 109 125 3,000 -50 Level Potomac TRACON
Wed 11:43:50 AM 39.4833 -77.0000 218° Southwest 128 147 2,900 -149 Descending Potomac TRACON
Wed 11:44:50 AM 39.4667 -76.9667 123° Southeast 107 123 2,700 -100 Descending Potomac TRACON
Wed 11:45:50 AM 39.4500 -76.9500 142° Southeast 101 116 2,700 -50 Level Potomac TRACON
Wed 11:46:51 AM 39.4333 -76.9167 123° Southeast 98 113 2,600 -50 Descending Potomac TRACON
Wed 11:47:51 AM 39.4167 -76.9000 142° Southeast 99 114 2,600  Level Potomac TRACON
Wed 11:48:51 AM 39.4333 -76.8833 38° Northeast 108 124 2,600 -50 Level Potomac TRACON
Wed 11:49:52 AM 39.4667 -76.9000 339° North 102 117 2,500 -149 Descending Potomac TRACON
Wed 11:50:52 AM 39.5000 -76.9000 360° North 114 131 2,300 -250 Descending Potomac TRACON
Wed 11:51:52 AM 39.5167 -76.9333 303° West 107 123 2,000 -100 Descending Potomac TRACON
Wed 11:52:52 AM 39.5333 -76.9500 322° Northwest 104 120 2,100 -100 Climbing Potomac TRACON
Wed 11:53:52 AM 39.5667 -76.9833 322° Northwest 115 132 1,800 -250 Descending Potomac TRACON
Wed 11:54:52 AM 39.5833 -77.0000 322° Northwest 119 137 1,600 -100 Descending Potomac TRACON
Wed 11:55:52 AM 39.6000 -77.0000 360° North 107 123 1,600  Level Potomac TRACON

Login

Don't have an account? Register now (free) for customized features, flight alerts, and more!